sensor_id;sensor_type;location;lat;lon;timestamp;temperature;humidity
72355;SHT30;60314;55.040;73.076;2022-09-17T00:01:42;2.07;74.75
72355;SHT30;60314;55.040;73.076;2022-09-17T00:04:09;2.01;74.47
72355;SHT30;60314;55.040;73.076;2022-09-17T00:06:41;1.99;74.06
72355;SHT30;60314;55.040;73.076;2022-09-17T00:09:17;1.97;74.14
72355;SHT30;60314;55.040;73.076;2022-09-17T00:11:44;1.99;74.50
72355;SHT30;60314;55.040;73.076;2022-09-17T00:14:16;1.98;74.83
72355;SHT30;60314;55.040;73.076;2022-09-17T00:16:45;1.91;74.65
72355;SHT30;60314;55.040;73.076;2022-09-17T00:19:15;1.89;75.01
72355;SHT30;60314;55.040;73.076;2022-09-17T00:21:42;1.85;74.99
72355;SHT30;60314;55.040;73.076;2022-09-17T00:24:11;1.87;74.92
72355;SHT30;60314;55.040;73.076;2022-09-17T00:26:48;1.88;75.14
72355;SHT30;60314;55.040;73.076;2022-09-17T00:29:15;1.88;75.10
72355;SHT30;60314;55.040;73.076;2022-09-17T00:31:41;1.93;75.00
72355;SHT30;60314;55.040;73.076;2022-09-17T00:34:08;1.87;74.97
72355;SHT30;60314;55.040;73.076;2022-09-17T00:36:37;1.84;74.26
72355;SHT30;60314;55.040;73.076;2022-09-17T00:39:06;1.85;73.75
72355;SHT30;60314;55.040;73.076;2022-09-17T00:41:34;1.81;74.15
72355;SHT30;60314;55.040;73.076;2022-09-17T00:47:38;1.82;72.63
72355;SHT30;60314;55.040;73.076;2022-09-17T00:50:09;1.77;72.06
72355;SHT30;60314;55.040;73.076;2022-09-17T00:52:52;1.75;73.68
72355;SHT30;60314;55.040;73.076;2022-09-17T00:55:24;1.67;73.12
72355;SHT30;60314;55.040;73.076;2022-09-17T00:57:55;1.70;73.35
72355;SHT30;60314;55.040;73.076;2022-09-17T01:00:25;1.74;73.98
72355;SHT30;60314;55.040;73.076;2022-09-17T01:02:57;1.77;74.40
72355;SHT30;60314;55.040;73.076;2022-09-17T01:05:43;1.85;74.33
72355;SHT30;60314;55.040;73.076;2022-09-17T01:14:27;1.95;73.88
72355;SHT30;60314;55.040;73.076;2022-09-17T01:26:10;2.26;75.39
72355;SHT30;60314;55.040;73.076;2022-09-17T01:31:36;2.50;74.93
72355;SHT30;60314;55.040;73.076;2022-09-17T01:34:16;2.54;75.02
72355;SHT30;60314;55.040;73.076;2022-09-17T01:39:43;2.80;75.13
72355;SHT30;60314;55.040;73.076;2022-09-17T01:42:23;2.93;75.55
72355;SHT30;60314;55.040;73.076;2022-09-17T01:44:59;3.08;75.28
72355;SHT30;60314;55.040;73.076;2022-09-17T01:47:35;3.18;75.54
72355;SHT30;60314;55.040;73.076;2022-09-17T01:50:06;3.35;75.59
72355;SHT30;60314;55.040;73.076;2022-09-17T01:52:40;3.48;75.96
72355;SHT30;60314;55.040;73.076;2022-09-17T01:55:16;3.68;75.76
72355;SHT30;60314;55.040;73.076;2022-09-17T01:58:06;3.83;75.86
72355;SHT30;60314;55.040;73.076;2022-09-17T02:00:33;4.03;76.46
72355;SHT30;60314;55.040;73.076;2022-09-17T02:03:36;4.23;76.17
72355;SHT30;60314;55.040;73.076;2022-09-17T02:08:49;4.71;76.28
72355;SHT30;60314;55.040;73.076;2022-09-17T02:11:27;4.96;76.37
72355;SHT30;60314;55.040;73.076;2022-09-17T02:14:12;5.33;75.62
72355;SHT30;60314;55.040;73.076;2022-09-17T02:16:48;5.58;75.01
72355;SHT30;60314;55.040;73.076;2022-09-17T02:19:26;5.91;74.61
72355;SHT30;60314;55.040;73.076;2022-09-17T02:24:36;6.39;74.22
72355;SHT30;60314;55.040;73.076;2022-09-17T02:29:50;6.80;73.72
72355;SHT30;60314;55.040;73.076;2022-09-17T02:32:17;7.01;73.96
72355;SHT30;60314;55.040;73.076;2022-09-17T02:34:43;7.22;73.06
72355;SHT30;60314;55.040;73.076;2022-09-17T02:37:12;7.48;73.21
72355;SHT30;60314;55.040;73.076;2022-09-17T02:39:39;7.66;70.98
72355;SHT30;60314;55.040;73.076;2022-09-17T02:50:18;8.60;66.77
72355;SHT30;60314;55.040;73.076;2022-09-17T02:53:04;8.92;66.39
72355;SHT30;60314;55.040;73.076;2022-09-17T02:55:56;9.19;65.34
72355;SHT30;60314;55.040;73.076;2022-09-17T03:01:59;9.69;61.63
72355;SHT30;60314;55.040;73.076;2022-09-17T03:04:27;9.87;62.01
72355;SHT30;60314;55.040;73.076;2022-09-17T03:07:07;10.06;61.45
72355;SHT30;60314;55.040;73.076;2022-09-17T03:09:46;10.25;60.74
72355;SHT30;60314;55.040;73.076;2022-09-17T03:12:14;10.38;60.25
72355;SHT30;60314;55.040;73.076;2022-09-17T03:14:42;10.56;60.57
72355;SHT30;60314;55.040;73.076;2022-09-17T03:17:18;10.75;58.28
72355;SHT30;60314;55.040;73.076;2022-09-17T03:19:55;10.89;58.70
72355;SHT30;60314;55.040;73.076;2022-09-17T03:22:21;11.08;58.38
72355;SHT30;60314;55.040;73.076;2022-09-17T03:24:48;11.27;58.49
72355;SHT30;60314;55.040;73.076;2022-09-17T03:27:14;11.45;57.02
72355;SHT30;60314;55.040;73.076;2022-09-17T03:29:51;11.62;56.45
72355;SHT30;60314;55.040;73.076;2022-09-17T03:32:17;11.72;55.16
72355;SHT30;60314;55.040;73.076;2022-09-17T03:34:49;11.83;56.12
72355;SHT30;60314;55.040;73.076;2022-09-17T03:37:16;11.99;54.29
72355;SHT30;60314;55.040;73.076;2022-09-17T03:39:47;12.13;55.30
72355;SHT30;60314;55.040;73.076;2022-09-17T03:42:14;12.30;54.84
72355;SHT30;60314;55.040;73.076;2022-09-17T03:44:40;12.49;54.29
72355;SHT30;60314;55.040;73.076;2022-09-17T03:47:09;12.65;53.60
72355;SHT30;60314;55.040;73.076;2022-09-17T03:49:37;12.81;52.57
72355;SHT30;60314;55.040;73.076;2022-09-17T03:52:04;12.95;53.30
72355;SHT30;60314;55.040;73.076;2022-09-17T03:54:30;13.12;53.37
72355;SHT30;60314;55.040;73.076;2022-09-17T03:56:56;13.25;52.04
72355;SHT30;60314;55.040;73.076;2022-09-17T03:59:23;13.38;52.71
72355;SHT30;60314;55.040;73.076;2022-09-17T04:01:49;13.63;51.49
72355;SHT30;60314;55.040;73.076;2022-09-17T04:04:16;13.74;52.50
72355;SHT30;60314;55.040;73.076;2022-09-17T04:06:42;13.90;51.95
72355;SHT30;60314;55.040;73.076;2022-09-17T04:09:09;14.01;51.68
72355;SHT30;60314;55.040;73.076;2022-09-17T04:11:43;14.20;51.33
72355;SHT30;60314;55.040;73.076;2022-09-17T04:14:10;14.34;50.29
72355;SHT30;60314;55.040;73.076;2022-09-17T04:16:39;14.44;52.67
72355;SHT30;60314;55.040;73.076;2022-09-17T04:19:05;14.57;49.82
72355;SHT30;60314;55.040;73.076;2022-09-17T04:21:32;14.69;50.63
72355;SHT30;60314;55.040;73.076;2022-09-17T04:23:58;14.85;48.86
72355;SHT30;60314;55.040;73.076;2022-09-17T04:26:25;15.00;48.64
72355;SHT30;60314;55.040;73.076;2022-09-17T04:28:51;15.18;46.85
72355;SHT30;60314;55.040;73.076;2022-09-17T04:31:17;15.33;49.10
72355;SHT30;60314;55.040;73.076;2022-09-17T04:33:44;15.49;46.74
72355;SHT30;60314;55.040;73.076;2022-09-17T04:36:10;15.50;48.37
72355;SHT30;60314;55.040;73.076;2022-09-17T04:38:37;15.65;47.27
72355;SHT30;60314;55.040;73.076;2022-09-17T04:41:06;15.75;48.39
72355;SHT30;60314;55.040;73.076;2022-09-17T04:43:33;15.90;45.99
72355;SHT30;60314;55.040;73.076;2022-09-17T04:45:59;15.97;46.92
72355;SHT30;60314;55.040;73.076;2022-09-17T04:48:26;16.11;45.73
72355;SHT30;60314;55.040;73.076;2022-09-17T04:50:52;16.14;41.15
72355;SHT30;60314;55.040;73.076;2022-09-17T04:53:18;16.28;40.76
72355;SHT30;60314;55.040;73.076;2022-09-17T04:55:45;16.45;41.05
72355;SHT30;60314;55.040;73.076;2022-09-17T04:58:17;16.62;40.86
72355;SHT30;60314;55.040;73.076;2022-09-17T05:00:43;16.70;38.49
72355;SHT30;60314;55.040;73.076;2022-09-17T05:03:10;16.70;41.03
72355;SHT30;60314;55.040;73.076;2022-09-17T05:05:37;16.74;41.76
72355;SHT30;60314;55.040;73.076;2022-09-17T05:08:03;16.79;43.71
72355;SHT30;60314;55.040;73.076;2022-09-17T05:10:30;16.73;42.42
72355;SHT30;60314;55.040;73.076;2022-09-17T05:13:06;16.91;44.47
72355;SHT30;60314;55.040;73.076;2022-09-17T05:15:34;16.94;45.39
72355;SHT30;60314;55.040;73.076;2022-09-17T05:18:00;16.93;41.39
72355;SHT30;60314;55.040;73.076;2022-09-17T05:20:35;16.94;41.56
72355;SHT30;60314;55.040;73.076;2022-09-17T05:23:02;17.02;40.27
72355;SHT30;60314;55.040;73.076;2022-09-17T05:25:28;17.11;40.71
72355;SHT30;60314;55.040;73.076;2022-09-17T05:28:02;17.13;42.27
72355;SHT30;60314;55.040;73.076;2022-09-17T05:30:37;17.15;39.71
72355;SHT30;60314;55.040;73.076;2022-09-17T05:33:05;17.27;42.36
72355;SHT30;60314;55.040;73.076;2022-09-17T05:35:42;17.37;39.14
72355;SHT30;60314;55.040;73.076;2022-09-17T05:38:10;17.46;38.23
72355;SHT30;60314;55.040;73.076;2022-09-17T05:40:36;17.55;38.89
72355;SHT30;60314;55.040;73.076;2022-09-17T05:43:14;17.66;39.04
72355;SHT30;60314;55.040;73.076;2022-09-17T05:45:40;17.75;37.78
72355;SHT30;60314;55.040;73.076;2022-09-17T05:48:13;17.75;36.90
72355;SHT30;60314;55.040;73.076;2022-09-17T05:50:40;17.74;37.43
72355;SHT30;60314;55.040;73.076;2022-09-17T05:53:11;17.85;39.41
72355;SHT30;60314;55.040;73.076;2022-09-17T05:55:41;17.85;37.12
72355;SHT30;60314;55.040;73.076;2022-09-17T05:58:18;17.85;37.78
72355;SHT30;60314;55.040;73.076;2022-09-17T06:00:45;17.93;38.96
72355;SHT30;60314;55.040;73.076;2022-09-17T06:03:15;17.97;35.32
72355;SHT30;60314;55.040;73.076;2022-09-17T06:05:52;18.03;39.65
72355;SHT30;60314;55.040;73.076;2022-09-17T06:08:20;18.05;38.54
72355;SHT30;60314;55.040;73.076;2022-09-17T06:10:47;18.03;39.25
72355;SHT30;60314;55.040;73.076;2022-09-17T06:13:18;17.92;36.35
72355;SHT30;60314;55.040;73.076;2022-09-17T06:15:49;18.02;36.74
72355;SHT30;60314;55.040;73.076;2022-09-17T06:18:16;18.07;37.46
72355;SHT30;60314;55.040;73.076;2022-09-17T06:20:54;18.13;36.64
72355;SHT30;60314;55.040;73.076;2022-09-17T06:23:21;18.26;36.54
72355;SHT30;60314;55.040;73.076;2022-09-17T06:25:58;18.26;38.38
72355;SHT30;60314;55.040;73.076;2022-09-17T06:28:26;18.26;35.79
72355;SHT30;60314;55.040;73.076;2022-09-17T06:30:53;18.25;37.75
72355;SHT30;60314;55.040;73.076;2022-09-17T06:33:22;18.33;38.48
72355;SHT30;60314;55.040;73.076;2022-09-17T06:35:56;18.22;35.95
72355;SHT30;60314;55.040;73.076;2022-09-17T06:38:25;18.23;36.12
72355;SHT30;60314;55.040;73.076;2022-09-17T06:40:52;18.29;37.43
72355;SHT30;60314;55.040;73.076;2022-09-17T06:43:19;18.37;35.34
72355;SHT30;60314;55.040;73.076;2022-09-17T06:45:57;18.48;36.75
72355;SHT30;60314;55.040;73.076;2022-09-17T06:48:35;18.61;35.06
72355;SHT30;60314;55.040;73.076;2022-09-17T06:51:04;18.53;35.01
72355;SHT30;60314;55.040;73.076;2022-09-17T06:53:31;18.63;38.96
72355;SHT30;60314;55.040;73.076;2022-09-17T06:55:59;18.74;34.40
72355;SHT30;60314;55.040;73.076;2022-09-17T06:58:27;18.85;34.88
72355;SHT30;60314;55.040;73.076;2022-09-17T07:01:00;18.94;34.74
72355;SHT30;60314;55.040;73.076;2022-09-17T07:03:28;18.91;33.75
72355;SHT30;60314;55.040;73.076;2022-09-17T07:05:56;18.84;35.71
72355;SHT30;60314;55.040;73.076;2022-09-17T07:08:23;18.83;34.19
72355;SHT30;60314;55.040;73.076;2022-09-17T07:10:57;18.89;33.54
72355;SHT30;60314;55.040;73.076;2022-09-17T07:13:24;18.91;33.82
72355;SHT30;60314;55.040;73.076;2022-09-17T07:15:55;18.64;34.48
72355;SHT30;60314;55.040;73.076;2022-09-17T07:18:33;18.32;34.09
72355;SHT30;60314;55.040;73.076;2022-09-17T07:21:01;18.27;35.43
72355;SHT30;60314;55.040;73.076;2022-09-17T07:23:30;18.47;35.52
72355;SHT30;60314;55.040;73.076;2022-09-17T07:25:59;18.68;34.07
72355;SHT30;60314;55.040;73.076;2022-09-17T07:28:26;18.78;34.68
72355;SHT30;60314;55.040;73.076;2022-09-17T07:30:54;18.88;33.93
72355;SHT30;60314;55.040;73.076;2022-09-17T07:33:24;18.85;33.76
72355;SHT30;60314;55.040;73.076;2022-09-17T07:35:59;18.64;35.00
72355;SHT30;60314;55.040;73.076;2022-09-17T07:38:36;18.47;33.06
72355;SHT30;60314;55.040;73.076;2022-09-17T07:41:13;18.60;36.36
72355;SHT30;60314;55.040;73.076;2022-09-17T07:43:40;18.75;35.66
72355;SHT30;60314;55.040;73.076;2022-09-17T07:46:13;18.98;34.19
72355;SHT30;60314;55.040;73.076;2022-09-17T07:48:40;18.97;34.02
72355;SHT30;60314;55.040;73.076;2022-09-17T07:51:16;18.71;33.39
72355;SHT30;60314;55.040;73.076;2022-09-17T07:53:43;18.67;33.79
72355;SHT30;60314;55.040;73.076;2022-09-17T07:56:10;18.79;33.98
72355;SHT30;60314;55.040;73.076;2022-09-17T07:58:36;19.04;33.19
72355;SHT30;60314;55.040;73.076;2022-09-17T08:01:14;19.16;31.87
72355;SHT30;60314;55.040;73.076;2022-09-17T08:03:50;19.05;31.99
72355;SHT30;60314;55.040;73.076;2022-09-17T08:06:24;18.95;33.68
72355;SHT30;60314;55.040;73.076;2022-09-17T08:08:54;18.97;33.52
72355;SHT30;60314;55.040;73.076;2022-09-17T08:11:24;18.91;33.16
72355;SHT30;60314;55.040;73.076;2022-09-17T08:13:52;18.85;34.07
72355;SHT30;60314;55.040;73.076;2022-09-17T08:16:20;18.85;34.16
72355;SHT30;60314;55.040;73.076;2022-09-17T08:18:48;18.87;33.99
72355;SHT30;60314;55.040;73.076;2022-09-17T08:21:16;18.69;32.58
72355;SHT30;60314;55.040;73.076;2022-09-17T08:23:44;18.57;33.69
72355;SHT30;60314;55.040;73.076;2022-09-17T08:26:21;18.54;34.72
72355;SHT30;60314;55.040;73.076;2022-09-17T08:28:58;18.61;33.70
72355;SHT30;60314;55.040;73.076;2022-09-17T08:31:26;18.54;33.84
72355;SHT30;60314;55.040;73.076;2022-09-17T08:33:56;18.38;35.10
72355;SHT30;60314;55.040;73.076;2022-09-17T08:36:22;18.27;34.13
72355;SHT30;60314;55.040;73.076;2022-09-17T08:38:52;18.38;34.77
72355;SHT30;60314;55.040;73.076;2022-09-17T08:41:47;18.61;34.21
72355;SHT30;60314;55.040;73.076;2022-09-17T08:44:29;18.65;33.15
72355;SHT30;60314;55.040;73.076;2022-09-17T08:47:00;18.46;33.86
72355;SHT30;60314;55.040;73.076;2022-09-17T08:49:55;18.27;33.98
72355;SHT30;60314;55.040;73.076;2022-09-17T09:00:20;18.29;35.38
72355;SHT30;60314;55.040;73.076;2022-09-17T09:03:15;18.30;34.66
72355;SHT30;60314;55.040;73.076;2022-09-17T09:05:47;18.36;33.83
72355;SHT30;60314;55.040;73.076;2022-09-17T09:08:28;18.25;35.24
72355;SHT30;60314;55.040;73.076;2022-09-17T09:11:00;18.17;34.50
72355;SHT30;60314;55.040;73.076;2022-09-17T09:13:32;18.03;35.35
72355;SHT30;60314;55.040;73.076;2022-09-17T09:18:39;17.86;34.79
72355;SHT30;60314;55.040;73.076;2022-09-17T09:24:01;17.79;34.83
72355;SHT30;60314;55.040;73.076;2022-09-17T09:35:10;17.71;35.27
72355;SHT30;60314;55.040;73.076;2022-09-17T09:37:39;17.66;35.87
72355;SHT30;60314;55.040;73.076;2022-09-17T09:43:42;17.68;38.63
72355;SHT30;60314;55.040;73.076;2022-09-17T09:46:33;17.71;36.09
72355;SHT30;60314;55.040;73.076;2022-09-17T09:49:34;17.81;37.29
72355;SHT30;60314;55.040;73.076;2022-09-17T09:52:21;17.90;36.07
72355;SHT30;60314;55.040;73.076;2022-09-17T09:55:18;17.96;34.85
72355;SHT30;60314;55.040;73.076;2022-09-17T09:57:49;17.97;38.93
72355;SHT30;60314;55.040;73.076;2022-09-17T10:00:29;17.99;36.23
72355;SHT30;60314;55.040;73.076;2022-09-17T10:03:15;17.96;36.38
72355;SHT30;60314;55.040;73.076;2022-09-17T10:06:01;18.02;35.00
72355;SHT30;60314;55.040;73.076;2022-09-17T10:08:32;18.06;35.72
72355;SHT30;60314;55.040;73.076;2022-09-17T10:13:35;17.86;35.71
72355;SHT30;60314;55.040;73.076;2022-09-17T10:16:25;17.78;36.16
72355;SHT30;60314;55.040;73.076;2022-09-17T10:21:34;17.82;37.98
72355;SHT30;60314;55.040;73.076;2022-09-17T10:24:02;17.92;35.95
72355;SHT30;60314;55.040;73.076;2022-09-17T10:26:32;17.99;37.15
72355;SHT30;60314;55.040;73.076;2022-09-17T10:29:13;18.02;38.28
72355;SHT30;60314;55.040;73.076;2022-09-17T10:31:49;18.03;37.79
72355;SHT30;60314;55.040;73.076;2022-09-17T10:34:27;18.03;35.12
72355;SHT30;60314;55.040;73.076;2022-09-17T10:36:54;18.05;36.07
72355;SHT30;60314;55.040;73.076;2022-09-17T10:39:32;18.09;35.66
72355;SHT30;60314;55.040;73.076;2022-09-17T10:42:15;18.09;34.35
72355;SHT30;60314;55.040;73.076;2022-09-17T10:44:55;18.03;37.10
72355;SHT30;60314;55.040;73.076;2022-09-17T10:47:35;18.07;34.57
72355;SHT30;60314;55.040;73.076;2022-09-17T10:50:20;18.06;35.97
72355;SHT30;60314;55.040;73.076;2022-09-17T10:52:50;18.10;36.01
72355;SHT30;60314;55.040;73.076;2022-09-17T10:55:32;18.13;34.01
72355;SHT30;60314;55.040;73.076;2022-09-17T11:12:36;18.16;35.20
72355;SHT30;60314;55.040;73.076;2022-09-17T11:26:40;18.16;38.13
72355;SHT30;60314;55.040;73.076;2022-09-17T11:37:53;18.16;33.70
72355;SHT30;60314;55.040;73.076;2022-09-17T11:40:26;18.13;33.92
72355;SHT30;60314;55.040;73.076;2022-09-17T11:43:02;18.13;35.47
72355;SHT30;60314;55.040;73.076;2022-09-17T11:45:43;18.07;35.26
72355;SHT30;60314;55.040;73.076;2022-09-17T11:48:24;18.05;35.85
72355;SHT30;60314;55.040;73.076;2022-09-17T11:51:01;18.05;33.92
72355;SHT30;60314;55.040;73.076;2022-09-17T11:53:31;18.00;34.80
72355;SHT30;60314;55.040;73.076;2022-09-17T11:56:30;17.96;35.17
72355;SHT30;60314;55.040;73.076;2022-09-17T11:59:09;17.92;35.10
72355;SHT30;60314;55.040;73.076;2022-09-17T12:01:54;17.87;34.89
72355;SHT30;60314;55.040;73.076;2022-09-17T12:04:47;17.83;35.71
72355;SHT30;60314;55.040;73.076;2022-09-17T12:07:33;17.81;34.44
72355;SHT30;60314;55.040;73.076;2022-09-17T12:10:16;17.76;34.98
72355;SHT30;60314;55.040;73.076;2022-09-17T12:12:51;17.66;35.91
72355;SHT30;60314;55.040;73.076;2022-09-17T12:15:23;17.64;35.25
72355;SHT30;60314;55.040;73.076;2022-09-17T12:20:51;17.49;34.77
72355;SHT30;60314;55.040;73.076;2022-09-17T12:23:48;17.42;35.76
72355;SHT30;60314;55.040;73.076;2022-09-17T12:26:19;17.39;35.41
72355;SHT30;60314;55.040;73.076;2022-09-17T12:29:18;17.32;35.61
72355;SHT30;60314;55.040;73.076;2022-09-17T12:34:43;17.20;35.59
72355;SHT30;60314;55.040;73.076;2022-09-17T12:40:53;16.96;36.75
72355;SHT30;60314;55.040;73.076;2022-09-17T12:43:59;16.84;36.55
72355;SHT30;60314;55.040;73.076;2022-09-17T12:49:43;16.59;37.13
72355;SHT30;60314;55.040;73.076;2022-09-17T13:03:39;16.04;38.36
72355;SHT30;60314;55.040;73.076;2022-09-17T13:20:17;15.50;39.71
72355;SHT30;60314;55.040;73.076;2022-09-17T13:22:55;15.44;39.96
72355;SHT30;60314;55.040;73.076;2022-09-17T13:25:24;15.26;40.82
72355;SHT30;60314;55.040;73.076;2022-09-17T13:28:12;14.98;41.18
72355;SHT30;60314;55.040;73.076;2022-09-17T13:31:10;14.78;41.82
72355;SHT30;60314;55.040;73.076;2022-09-17T13:36:48;14.55;44.90
72355;SHT30;60314;55.040;73.076;2022-09-17T13:39:46;14.37;44.34
72355;SHT30;60314;55.040;73.076;2022-09-17T13:42:24;14.17;44.11
72355;SHT30;60314;55.040;73.076;2022-09-17T13:45:04;14.03;44.33
72355;SHT30;60314;55.040;73.076;2022-09-17T13:47:34;13.93;43.48
72355;SHT30;60314;55.040;73.076;2022-09-17T13:50:10;13.83;44.53
72355;SHT30;60314;55.040;73.076;2022-09-17T13:52:46;13.73;44.87
72355;SHT30;60314;55.040;73.076;2022-09-17T13:55:49;13.65;44.05
72355;SHT30;60314;55.040;73.076;2022-09-17T14:00:54;13.55;45.47
72355;SHT30;60314;55.040;73.076;2022-09-17T14:11:38;13.30;47.69
72355;SHT30;60314;55.040;73.076;2022-09-17T14:24:37;12.95;47.49
72355;SHT30;60314;55.040;73.076;2022-09-17T14:27:12;12.83;48.62
72355;SHT30;60314;55.040;73.076;2022-09-17T14:30:14;12.74;48.85
72355;SHT30;60314;55.040;73.076;2022-09-17T14:35:41;12.63;49.11
72355;SHT30;60314;55.040;73.076;2022-09-17T14:40:58;12.58;48.27
72355;SHT30;60314;55.040;73.076;2022-09-17T14:46:28;12.37;48.44
72355;SHT30;60314;55.040;73.076;2022-09-17T14:51:59;12.12;49.45
72355;SHT30;60314;55.040;73.076;2022-09-17T14:54:31;12.00;50.51
72355;SHT30;60314;55.040;73.076;2022-09-17T14:57:12;11.98;49.27
72355;SHT30;60314;55.040;73.076;2022-09-17T14:59:48;12.00;48.86
72355;SHT30;60314;55.040;73.076;2022-09-17T15:02:40;11.93;49.47
72355;SHT30;60314;55.040;73.076;2022-09-17T15:08:13;11.81;48.69
72355;SHT30;60314;55.040;73.076;2022-09-17T15:13:18;11.58;50.87
72355;SHT30;60314;55.040;73.076;2022-09-17T15:15:55;11.58;50.76
72355;SHT30;60314;55.040;73.076;2022-09-17T15:18:46;11.59;51.57
72355;SHT30;60314;55.040;73.076;2022-09-17T15:23:58;11.52;52.92
72355;SHT30;60314;55.040;73.076;2022-09-17T15:26:32;11.48;52.92
72355;SHT30;60314;55.040;73.076;2022-09-17T15:29:04;11.35;53.43
72355;SHT30;60314;55.040;73.076;2022-09-17T15:31:31;11.21;57.66
72355;SHT30;60314;55.040;73.076;2022-09-17T15:33:58;11.04;56.45
72355;SHT30;60314;55.040;73.076;2022-09-17T15:36:26;10.95;54.93
72355;SHT30;60314;55.040;73.076;2022-09-17T15:38:58;10.81;59.08
72355;SHT30;60314;55.040;73.076;2022-09-17T15:41:30;10.63;60.88
72355;SHT30;60314;55.040;73.076;2022-09-17T15:44:28;10.44;60.19
72355;SHT30;60314;55.040;73.076;2022-09-17T15:46:53;10.25;57.19
72355;SHT30;60314;55.040;73.076;2022-09-17T15:49:34;10.15;56.66
72355;SHT30;60314;55.040;73.076;2022-09-17T15:52:32;10.06;58.35
72355;SHT30;60314;55.040;73.076;2022-09-17T15:54:59;10.12;55.01
72355;SHT30;60314;55.040;73.076;2022-09-17T15:57:28;10.08;54.77
72355;SHT30;60314;55.040;73.076;2022-09-17T15:59:55;10.14;54.84
72355;SHT30;60314;55.040;73.076;2022-09-17T16:02:35;10.11;55.83
72355;SHT30;60314;55.040;73.076;2022-09-17T16:07:40;9.97;57.07
72355;SHT30;60314;55.040;73.076;2022-09-17T16:10:07;9.91;58.23
72355;SHT30;60314;55.040;73.076;2022-09-17T16:12:34;9.88;56.70
72355;SHT30;60314;55.040;73.076;2022-09-17T16:15:02;9.87;56.80
72355;SHT30;60314;55.040;73.076;2022-09-17T16:17:43;9.91;56.18
72355;SHT30;60314;55.040;73.076;2022-09-17T16:20:21;9.99;55.55
72355;SHT30;60314;55.040;73.076;2022-09-17T16:22:50;10.11;55.69
72355;SHT30;60314;55.040;73.076;2022-09-17T16:25:26;10.11;56.71
72355;SHT30;60314;55.040;73.076;2022-09-17T16:28:05;9.91;56.59
72355;SHT30;60314;55.040;73.076;2022-09-17T16:30:35;9.51;58.36
72355;SHT30;60314;55.040;73.076;2022-09-17T16:33:01;9.22;58.24
72355;SHT30;60314;55.040;73.076;2022-09-17T16:35:29;8.88;61.89
72355;SHT30;60314;55.040;73.076;2022-09-17T16:37:55;8.55;60.54
72355;SHT30;60314;55.040;73.076;2022-09-17T16:40:24;8.38;61.39
72355;SHT30;60314;55.040;73.076;2022-09-17T16:42:59;8.17;62.66
72355;SHT30;60314;55.040;73.076;2022-09-17T16:45:31;8.03;61.39
72355;SHT30;60314;55.040;73.076;2022-09-17T16:47:58;7.96;61.30
72355;SHT30;60314;55.040;73.076;2022-09-17T16:50:24;7.99;61.09
72355;SHT30;60314;55.040;73.076;2022-09-17T16:53:04;8.09;62.10
72355;SHT30;60314;55.040;73.076;2022-09-17T16:55:50;8.00;61.41
72355;SHT30;60314;55.040;73.076;2022-09-17T16:58:26;7.93;62.32
72355;SHT30;60314;55.040;73.076;2022-09-17T17:00:52;7.94;64.22
72355;SHT30;60314;55.040;73.076;2022-09-17T17:03:24;7.86;63.87
72355;SHT30;60314;55.040;73.076;2022-09-17T17:05:50;7.86;63.41
72355;SHT30;60314;55.040;73.076;2022-09-17T17:08:17;7.78;64.41
72355;SHT30;60314;55.040;73.076;2022-09-17T17:10:54;7.56;64.82
72355;SHT30;60314;55.040;73.076;2022-09-17T17:13:21;7.52;64.12
72355;SHT30;60314;55.040;73.076;2022-09-17T17:15:47;7.55;62.12
72355;SHT30;60314;55.040;73.076;2022-09-17T17:18:25;7.59;62.74
72355;SHT30;60314;55.040;73.076;2022-09-17T17:21:04;7.55;63.65
72355;SHT30;60314;55.040;73.076;2022-09-17T17:23:31;7.35;65.63
72355;SHT30;60314;55.040;73.076;2022-09-17T17:25:59;7.34;63.99
72355;SHT30;60314;55.040;73.076;2022-09-17T17:28:26;7.49;63.55
72355;SHT30;60314;55.040;73.076;2022-09-17T17:31:04;7.48;65.65
72355;SHT30;60314;55.040;73.076;2022-09-17T17:33:36;7.31;64.89
72355;SHT30;60314;55.040;73.076;2022-09-17T17:36:04;7.34;64.94
72355;SHT30;60314;55.040;73.076;2022-09-17T17:38:42;7.21;66.22
72355;SHT30;60314;55.040;73.076;2022-09-17T17:41:10;6.91;66.74
72355;SHT30;60314;55.040;73.076;2022-09-17T17:43:38;6.86;66.34
72355;SHT30;60314;55.040;73.076;2022-09-17T17:46:10;6.76;67.35
72355;SHT30;60314;55.040;73.076;2022-09-17T17:48:36;6.62;67.96
72355;SHT30;60314;55.040;73.076;2022-09-17T17:51:10;6.52;67.05
72355;SHT30;60314;55.040;73.076;2022-09-17T17:53:40;6.54;67.88
72355;SHT30;60314;55.040;73.076;2022-09-17T17:56:08;6.52;67.05
72355;SHT30;60314;55.040;73.076;2022-09-17T17:58:36;6.36;69.18
72355;SHT30;60314;55.040;73.076;2022-09-17T18:01:19;6.21;68.24
72355;SHT30;60314;55.040;73.076;2022-09-17T18:03:46;6.22;67.48
72355;SHT30;60314;55.040;73.076;2022-09-17T18:06:18;6.42;67.77
72355;SHT30;60314;55.040;73.076;2022-09-17T18:08:54;6.76;67.08
72355;SHT30;60314;55.040;73.076;2022-09-17T18:11:32;6.94;66.02
72355;SHT30;60314;55.040;73.076;2022-09-17T18:13:59;7.04;64.95
72355;SHT30;60314;55.040;73.076;2022-09-17T18:16:27;7.18;65.69
72355;SHT30;60314;55.040;73.076;2022-09-17T18:18:55;7.28;65.39
72355;SHT30;60314;55.040;73.076;2022-09-17T18:21:23;7.24;64.46
72355;SHT30;60314;55.040;73.076;2022-09-17T18:23:51;7.07;65.32
72355;SHT30;60314;55.040;73.076;2022-09-17T18:26:20;7.03;65.28
72355;SHT30;60314;55.040;73.076;2022-09-17T18:28:48;7.07;65.26
72355;SHT30;60314;55.040;73.076;2022-09-17T18:31:21;7.14;65.78
72355;SHT30;60314;55.040;73.076;2022-09-17T18:34:06;7.27;65.58
72355;SHT30;60314;55.040;73.076;2022-09-17T18:36:43;7.42;65.22
72355;SHT30;60314;55.040;73.076;2022-09-17T18:39:12;7.52;65.28
72355;SHT30;60314;55.040;73.076;2022-09-17T18:41:40;7.56;64.95
72355;SHT30;60314;55.040;73.076;2022-09-17T18:44:07;7.48;65.44
72355;SHT30;60314;55.040;73.076;2022-09-17T18:46:34;7.38;66.41
72355;SHT30;60314;55.040;73.076;2022-09-17T18:49:01;7.34;65.24
72355;SHT30;60314;55.040;73.076;2022-09-17T18:51:28;7.35;65.49
72355;SHT30;60314;55.040;73.076;2022-09-17T18:53:57;7.39;65.82
72355;SHT30;60314;55.040;73.076;2022-09-17T18:56:28;7.42;65.67
72355;SHT30;60314;55.040;73.076;2022-09-17T18:58:56;7.47;65.41
72355;SHT30;60314;55.040;73.076;2022-09-17T19:01:25;7.49;65.25
72355;SHT30;60314;55.040;73.076;2022-09-17T19:03:54;7.49;64.92
72355;SHT30;60314;55.040;73.076;2022-09-17T19:06:21;7.51;65.03
72355;SHT30;60314;55.040;73.076;2022-09-17T19:08:58;7.56;64.70
72355;SHT30;60314;55.040;73.076;2022-09-17T19:11:35;7.59;65.16